DW5948 Weather Reports


Display with metric or nautical units.
time (UTC)temp
F
wind
direction
speed
MPH
gust
MPH
rain 1hr
in
rain 24hr
in
rain mn
in
humidity
%
barometer
mb
20220627063031 80 109 0.0 2.0 0.00 0.00 0.00 83 1017.7
20220627061538 80 107 0.0 4.0 0.00 0.00 0.00 83 1017.8
20220627060027 81 191 0.0 3.0 0.00 0.00 0.00 82 1017.8
20220627054526 81 209 0.0 1.0 0.00 0.00 0.00 82 1017.5
20220627053023 81 181 0.0 2.0 0.00 0.00 0.00 80 1017.6
20220627051521 82 110 0.0 2.0 0.00 0.00 0.00 79 1017.7
20220627050018 82 117 1.0 3.0 0.00 0.00 0.00 78 1017.6
20220627044521 83 145 0.0 3.0 0.00 0.00 0.00 76 1017.8
20220627043016 83 123 1.0 4.0 0.00 0.00 0.00 73 1017.4
20220627041517 83 143 0.0 3.0 0.00 0.00 0.00 71 1017.3
20220627040015 84 137 0.0 3.0 0.00 0.00 0.00 68 1017.1
20220627034517 85 123 0.0 3.0 0.00 0.00 0.00 67 1017.0
20220627033014 85 129 2.0 7.0 0.00 0.00 0.00 65 1016.9
20220627031516 86 152 2.0 8.0 0.00 0.00 0.00 62 1016.7
20220627030013 87 166 2.0 5.0 0.00 0.00 0.00 60 1016.6
20220627024513 87 134 2.0 8.0 0.00 0.00 0.00 59 1016.3
20220627023012 88 129 1.0 7.0 0.00 0.00 0.00 58 1016.4
20220627021512 88 135 1.0 6.0 0.00 0.00 0.00 58 1016.3
20220627020012 89 217 2.0 7.0 0.00 0.00 0.00 56 1016.1
20220627014519 90 118 2.0 8.0 0.00 0.00 0.00 56 1015.9
20220627013010 91 151 2.0 11.0 0.00 0.00 0.00 56 1015.8
20220627011512 92 229 3.0 6.0 0.00 0.00 0.00 54 1015.6
20220627010009 92 218 3.0 8.0 0.00 0.00 0.00 53 1015.5
20220627004508 93 203 4.0 9.0 0.00 0.00 0.00 52 1015.4
20220627003007 94 126 4.0 9.0 0.00 0.00 0.00 51 1015.2
20220627001506 95 154 4.0 9.0 0.00 0.00 0.00 50 1015.0
20220627000006 96 278 3.0 9.0 0.00 0.00 0.00 49 1015.0
20220626234513 96 179 4.0 10.0 0.00 0.00 0.00 48 1014.7
20220626233005 97 134 2.0 10.0 0.00 0.00 0.00 47 1014.7
20220626231504 101 109 0.0 5.0 0.00 0.00 0.00 36 1014.7
20220626230004 99 136 2.0 6.0 0.00 0.00 0.00 36 1014.6
20220626224506 98 139 1.0 6.0 0.00 0.00 0.00 36 1014.7
20220626223001 99 359 0.0 6.0 0.00 0.00 0.00 36 1014.8
20220626221600 100 18 0.0 6.0 0.00 0.00 0.00 34 1014.9
20220626220100 102 195 2.0 6.0 0.00 0.00 0.00 35 1015.0
20220626214557 102 72 1.0 5.0 0.00 0.00 0.00 33 1015.2
20220626213055 104 119 2.0 6.0 0.00 0.00 0.00 31 1015.3
20220626211554 103 127 3.0 9.0 0.00 0.00 0.00 31 1015.5
20220626210052 104 135 1.0 3.0 0.00 0.00 0.00 32 1015.6
20220626204548 102 357 1.0 8.0 0.00 0.00 0.00 32 1015.7
20220626203056 102 114 0.0 6.0 0.00 0.00 0.00 37 1015.9
20220626201550 102 131 1.0 4.0 0.00 0.00 0.00 38 1016.1
20220626200044 102 86 1.0 6.0 0.00 0.00 0.00 36 1016.2
20220626194543 101 41 1.0 7.0 0.00 0.00 0.00 38 1016.4
20220626193041 102 25 2.0 6.0 0.00 0.00 0.00 37 1016.7
20220626191539 101 105 1.0 8.0 0.00 0.00 0.00 38 1016.8
20220626190037 100 300 0.0 6.0 0.00 0.00 0.00 42 1017.0
20220626184536 100 241 1.0 7.0 0.00 0.00 0.00 43 1017.1
20220626183035 99 52 2.0 9.0 0.00 0.00 0.00 41 1017.1
20220626181532 98 27 3.0 6.0 0.00 0.00 0.00 42 1017.4
20220626180030 97 349 0.0 4.0 0.00 0.00 0.00 45 1017.6
20220626174529 98 345 0.0 4.0 0.00 0.00 0.00 46 1017.7
20220626173026 97 89 1.0 6.0 0.00 0.00 0.00 48 1017.9
20220626171522 96 280 1.0 4.0 0.00 0.00 0.00 51 1017.9
20220626170023 95 355 1.0 5.0 0.00 0.00 0.00 51 1018.0
20220626164523 94 106 1.0 5.0 0.00 0.00 0.00 51 1018.1
20220626163018 92 127 1.0 7.0 0.00 0.00 0.00 58 1018.2
20220626161513 92 155 3.0 5.0 0.00 0.00 0.00 60 1018.4
20220626160015 91 105 1.0 7.0 0.00 0.00 0.00 64 1018.4
20220626154508 91 300 1.0 4.0 0.00 0.00 0.00 64 1018.4
20220626153006 90 307 0.0 3.0 0.00 0.00 0.00 67 1018.5
20220626151502 89 337 2.0 5.0 0.00 0.00 0.00 68 1018.5
20220626150059 89 328 1.0 4.0 0.00 0.00 0.00 69 1018.4
20220626144604 88 233 1.0 4.0 0.00 0.00 0.00 70 1018.2
20220626143053 87 113 0.0 3.0 0.00 0.00 0.00 74 1018.2
20220626141552 87 319 1.0 2.0 0.00 0.00 0.00 73 1018.1
20220626140048 86 326 0.0 3.0 0.00 0.00 0.00 78 1018.1
20220626134557 84 209 0.0 3.0 0.00 0.00 0.00 81 1018.1
20220626133042 83 300 0.0 1.0 0.00 0.00 0.00 83 1018.2
20220626131538 82 282 0.0 2.0 0.00 0.00 0.00 86 1018.0
20220626130035 80 287 0.0 1.0 0.00 0.00 0.00 89 1017.9
20220626124533 78 345 0.0 2.0 0.00 0.00 0.00 92 1017.7
20220626123036 76 92 0.0 0.0 0.00 0.00 0.00 93 1017.7
20220626121531 75 92 0.0 0.0 0.00 0.00 0.00 95 1017.6
20220626120030 74 92 0.0 0.0 0.00 0.00 0.00 95 1017.5
20220626114527 73 92 0.0 0.0 0.00 0.00 0.00 94 1017.4
20220626113027 73 91 0.0 0.0 0.00 0.00 0.00 94 1017.3
20220626111525 73 91 0.0 0.0 0.00 0.00 0.00 94 1017.2
20220626110023 73 91 0.0 0.0 0.00 0.00 0.00 94 1017.0
20220626104521 73 91 0.0 0.0 0.00 0.00 0.00 93 1017.0
20220626103019 73 91 0.0 0.0 0.00 0.00 0.00 93 1016.7
20220626101519 74 91 0.0 0.0 0.00 0.00 0.00 93 1016.7
20220626100019 74 91 0.0 0.0 0.00 0.00 0.00 93 1016.7
20220626094522 74 91 0.0 0.0 0.00 0.00 0.00 92 1016.8
20220626093015 74 91 0.0 0.0 0.00 0.00 0.00 92 1016.8
20220626091527 75 91 0.0 0.0 0.00 0.00 0.00 92 1016.7
20220626090014 74 143 0.0 0.0 0.00 0.00 0.00 92 1016.7
20220626084513 75 142 0.0 0.0 0.00 0.00 0.00 91 1016.8
20220626083011 75 143 0.0 0.0 0.00 0.00 0.00 90 1016.7
20220626081509 75 142 0.0 0.0 0.00 0.00 0.00 90 1016.8
20220626080008 76 143 0.0 1.0 0.00 0.00 0.00 89 1016.7
20220626074507 75 114 0.0 1.0 0.00 0.00 0.00 89 1016.5
20220626073006 76 145 0.0 0.0 0.00 0.00 0.00 89 1016.5
20220626071505 76 126 0.0 1.0 0.00 0.00 0.00 89 1016.6
20220626070005 76 122 0.0 0.0 0.00 0.00 0.00 88 1016.5
20220626064502 76 122 0.0 0.0 0.00 0.00 0.00 86 1016.6